createdAt,value
2023-03-19T00:01:05.202Z,15.50
2023-03-19T00:02:37.319Z,15.15
2023-03-19T00:04:09.400Z,14.38
2023-03-19T00:05:41.143Z,15.77
2023-03-19T00:07:13.917Z,15.57
2023-03-19T00:08:45.870Z,15.93
2023-03-19T00:10:18.099Z,17.08
2023-03-19T00:11:49.845Z,15.40
2023-03-19T00:13:21.973Z,16.75
2023-03-19T00:14:53.696Z,15.77
2023-03-19T00:16:25.473Z,16.38
2023-03-19T00:17:57.603Z,14.07
2023-03-19T00:19:29.420Z,13.95
2023-03-19T00:21:01.714Z,13.88
2023-03-19T00:22:33.404Z,14.43
2023-03-19T00:24:05.590Z,16.20
2023-03-19T00:25:37.658Z,14.52
2023-03-19T00:27:09.617Z,13.15
2023-03-19T00:28:41.765Z,14.32
2023-03-19T00:30:15.109Z,13.43
2023-03-19T00:31:47.744Z,15.20
2023-03-19T00:33:20.483Z,14.35
2023-03-19T00:34:53.228Z,15.07
2023-03-19T00:36:26.605Z,15.20
2023-03-19T00:37:58.824Z,15.07
2023-03-19T00:39:30.544Z,15.98
2023-03-19T00:41:04.052Z,16.40
2023-03-19T00:42:36.585Z,18.55
2023-03-19T00:44:08.669Z,13.63
2023-03-19T00:45:40.755Z,12.95
2023-03-19T00:47:13.301Z,16.02
2023-03-19T00:48:45.260Z,15.23
2023-03-19T00:50:16.981Z,15.50
2023-03-19T00:51:48.751Z,15.13
2023-03-19T00:53:21.491Z,17.08
2023-03-19T00:54:53.411Z,13.32
2023-03-19T00:56:25.125Z,13.93
2023-03-19T00:57:57.452Z,14.90
2023-03-19T00:59:29.302Z,16.65
2023-03-19T01:01:02.399Z,14.57
2023-03-19T01:02:34.272Z,16.45
2023-03-19T01:04:06.334Z,14.73
2023-03-19T01:05:40.972Z,15.98
2023-03-19T01:07:12.679Z,15.35
2023-03-19T01:08:44.380Z,16.10
2023-03-19T01:10:18.963Z,14.60
2023-03-19T01:11:51.114Z,15.93
2023-03-19T01:13:22.842Z,14.40
2023-03-19T01:14:54.556Z,15.15
2023-03-19T01:16:26.501Z,15.63
2023-03-19T01:17:58.353Z,18.52
2023-03-19T01:19:30.295Z,15.73
2023-03-19T01:21:02.721Z,16.75
2023-03-19T01:22:38.292Z,15.63
2023-03-19T01:24:10.817Z,16.02
2023-03-19T01:25:42.997Z,16.88
2023-03-19T01:27:14.697Z,14.68
2023-03-19T01:28:46.382Z,15.30
2023-03-19T01:30:19.029Z,16.02
2023-03-19T01:32:17.880Z,15.15
2023-03-19T01:34:00.228Z,14.82
2023-03-19T01:35:39.666Z,14.90
2023-03-19T01:37:11.487Z,14.27
2023-03-19T01:38:44.251Z,15.30
2023-03-19T01:40:19.881Z,16.08
2023-03-19T01:41:51.975Z,13.07
2023-03-19T01:43:48.997Z,14.35
2023-03-19T01:45:40.979Z,16.15
2023-03-19T01:47:47.221Z,13.77
2023-03-19T01:49:31.818Z,14.73
2023-03-19T01:51:20.733Z,13.55
2023-03-19T01:53:12.807Z,13.65
2023-03-19T01:54:54.468Z,15.45
2023-03-19T01:56:58.401Z,13.77
2023-03-19T01:59:08.655Z,15.10
2023-03-19T02:00:49.548Z,16.55
2023-03-19T02:02:29.501Z,17.33
2023-03-19T02:05:41.355Z,13.82
2023-03-19T02:07:17.414Z,16.23
2023-03-19T02:08:50.125Z,15.43
2023-03-19T02:10:23.115Z,14.27
2023-03-19T02:11:56.267Z,15.15
2023-03-19T02:13:28.525Z,16.67
2023-03-19T02:15:00.475Z,15.23
2023-03-19T02:16:33.057Z,15.75
2023-03-19T02:18:05.201Z,16.67
2023-03-19T02:19:53.283Z,15.02
2023-03-19T02:21:25.420Z,15.80
2023-03-19T02:23:12.363Z,15.32
2023-03-19T02:24:52.262Z,14.15
2023-03-19T02:26:29.176Z,15.48
2023-03-19T02:28:07.822Z,14.38
2023-03-19T02:29:39.561Z,15.13
2023-03-19T02:31:13.607Z,16.65
2023-03-19T02:32:45.472Z,13.95
2023-03-19T02:34:38.844Z,15.23
2023-03-19T02:36:15.665Z,15.77
2023-03-19T02:37:47.366Z,14.77
2023-03-19T02:39:37.887Z,13.38
2023-03-19T02:41:10.650Z,13.38
2023-03-19T02:42:44.077Z,15.55
2023-03-19T02:44:17.413Z,13.02
2023-03-19T02:45:50.720Z,14.23
2023-03-19T02:47:24.168Z,14.10
2023-03-19T02:48:55.857Z,14.10
2023-03-19T02:50:27.615Z,14.38
2023-03-19T02:51:59.335Z,13.25
2023-03-19T02:53:31.437Z,11.20
2023-03-19T02:55:08.048Z,12.73
2023-03-19T02:56:40.455Z,13.85
2023-03-19T02:58:12.303Z,13.27
2023-03-19T02:59:44.237Z,14.18
2023-03-19T03:01:16.652Z,15.43
2023-03-19T03:02:48.450Z,13.73
2023-03-19T03:04:20.136Z,13.45
2023-03-19T03:05:52.067Z,15.70
2023-03-19T03:07:23.865Z,14.88
2023-03-19T03:08:55.544Z,17.13
2023-03-19T03:10:27.940Z,14.05
2023-03-19T03:11:59.823Z,15.00
2023-03-19T03:13:33.036Z,13.93
2023-03-19T03:15:06.608Z,13.90
2023-03-19T03:16:38.451Z,13.82
2023-03-19T03:18:10.428Z,15.07
2023-03-19T03:19:42.182Z,17.25
2023-03-19T03:21:13.956Z,18.20
2023-03-19T03:22:45.918Z,16.63
2023-03-19T03:24:17.631Z,15.02
2023-03-19T03:25:51.436Z,14.27
2023-03-19T03:27:23.190Z,15.77
2023-03-19T03:28:55.077Z,17.52
2023-03-19T03:30:26.981Z,18.48
2023-03-19T03:31:58.704Z,13.63
2023-03-19T03:33:30.793Z,14.85
2023-03-19T03:35:04.118Z,15.48
2023-03-19T03:36:35.972Z,15.93
2023-03-19T03:38:08.070Z,15.43
2023-03-19T03:39:39.743Z,16.75
2023-03-19T03:41:11.753Z,15.35
2023-03-19T03:42:44.465Z,17.20
2023-03-19T03:44:16.493Z,14.13
2023-03-19T03:45:49.977Z,17.08
2023-03-19T03:47:22.679Z,16.00
2023-03-19T03:48:54.388Z,14.27
2023-03-19T03:50:26.131Z,15.73
2023-03-19T03:52:00.547Z,15.77
2023-03-19T03:53:32.552Z,16.85
2023-03-19T03:55:05.356Z,15.13
2023-03-19T03:56:37.448Z,14.70
2023-03-19T03:58:09.242Z,13.95
2023-03-19T03:59:41.005Z,15.77
2023-03-19T04:01:16.678Z,16.50
2023-03-19T04:02:51.674Z,16.20
2023-03-19T04:04:23.387Z,15.38
2023-03-19T04:05:55.169Z,14.95
2023-03-19T04:07:28.071Z,15.48
2023-03-19T04:09:02.744Z,13.27
2023-03-19T04:10:36.143Z,12.75
2023-03-19T04:12:08.008Z,16.10
2023-03-19T04:13:39.911Z,13.02
2023-03-19T04:15:12.215Z,15.85
2023-03-19T04:16:46.806Z,17.30
2023-03-19T04:18:18.608Z,15.88
2023-03-19T04:19:50.372Z,17.27
2023-03-19T04:21:22.198Z,15.25
2023-03-19T04:22:53.995Z,14.13
2023-03-19T04:24:26.309Z,14.43
2023-03-19T04:26:08.259Z,15.13
2023-03-19T04:27:40.033Z,15.40
2023-03-19T04:29:13.357Z,17.27
2023-03-19T04:30:45.151Z,15.75
2023-03-19T04:32:17.349Z,13.85
2023-03-19T04:33:49.434Z,14.27
2023-03-19T04:35:21.620Z,14.93
2023-03-19T04:36:53.552Z,12.50
2023-03-19T04:38:29.233Z,13.10
2023-03-19T04:40:01.131Z,15.30
2023-03-19T04:41:34.931Z,12.38
2023-03-19T04:43:29.373Z,14.57
2023-03-19T04:45:01.947Z,13.30
2023-03-19T04:46:33.768Z,12.68
2023-03-19T04:48:07.019Z,13.40
2023-03-19T04:49:39.928Z,16.40
2023-03-19T04:51:11.641Z,16.50
2023-03-19T04:52:43.942Z,16.95
2023-03-19T04:54:16.757Z,13.40
2023-03-19T04:55:48.585Z,13.55
2023-03-19T04:57:22.612Z,14.57
2023-03-19T04:58:56.949Z,14.82
2023-03-19T05:00:30.686Z,15.75
2023-03-19T05:02:03.661Z,15.50
2023-03-19T05:03:36.679Z,17.35
2023-03-19T05:05:09.853Z,16.80
2023-03-19T05:06:41.868Z,16.90
2023-03-19T05:08:13.844Z,13.80
2023-03-19T05:09:46.519Z,16.20
2023-03-19T05:11:20.193Z,14.13
2023-03-19T05:13:14.998Z,12.93
2023-03-19T05:14:52.831Z,14.10
2023-03-19T05:16:27.745Z,14.27
2023-03-19T05:17:59.646Z,15.27
2023-03-19T05:19:39.610Z,14.30
2023-03-19T05:21:13.875Z,16.83
2023-03-19T05:22:46.783Z,13.95
2023-03-19T05:24:19.995Z,14.88
2023-03-19T05:25:52.011Z,13.43
2023-03-19T05:27:30.625Z,13.18
2023-03-19T05:29:10.975Z,15.93
2023-03-19T05:31:17.933Z,15.10
2023-03-19T05:32:55.857Z,13.63
2023-03-19T05:34:42.470Z,14.23
2023-03-19T05:36:14.758Z,15.18
2023-03-19T05:38:11.205Z,12.95
2023-03-19T05:39:44.292Z,15.88
2023-03-19T05:41:16.122Z,12.23
2023-03-19T05:42:58.097Z,14.95
2023-03-19T05:44:32.643Z,16.17
2023-03-19T05:46:27.625Z,13.07
2023-03-19T05:47:59.366Z,14.95
2023-03-19T05:49:31.873Z,12.95
2023-03-19T05:51:04.127Z,16.35
2023-03-19T05:52:40.396Z,12.32
2023-03-19T05:54:12.439Z,12.98
2023-03-19T05:56:04.636Z,14.77
2023-03-19T05:57:43.247Z,12.43
2023-03-19T05:59:23.181Z,12.60
2023-03-19T06:01:10.673Z,12.40
2023-03-19T06:02:43.212Z,13.15
2023-03-19T06:04:40.329Z,15.77
2023-03-19T06:06:12.469Z,13.27
2023-03-19T06:07:48.592Z,18.80
2023-03-19T06:09:38.225Z,15.43
2023-03-19T06:11:10.289Z,13.00
2023-03-19T06:12:42.471Z,13.77
2023-03-19T06:14:39.300Z,15.30
2023-03-19T06:16:39.624Z,14.27
2023-03-19T06:18:11.361Z,15.85
2023-03-19T06:19:43.079Z,13.57
2023-03-19T06:21:15.247Z,15.95
2023-03-19T06:22:47.011Z,12.95
2023-03-19T06:24:18.960Z,15.13
2023-03-19T06:25:50.928Z,13.65
2023-03-19T06:27:23.983Z,16.05
2023-03-19T06:28:59.572Z,12.45
2023-03-19T06:30:33.346Z,14.82
2023-03-19T06:32:08.173Z,13.93
2023-03-19T06:33:45.470Z,13.18
2023-03-19T06:35:17.490Z,16.02
2023-03-19T06:36:53.851Z,14.13
2023-03-19T06:38:25.798Z,13.82
2023-03-19T06:39:57.485Z,15.88
2023-03-19T06:41:29.229Z,15.57
2023-03-19T06:43:10.360Z,14.68
2023-03-19T06:44:42.037Z,12.95
2023-03-19T06:46:13.775Z,13.63
2023-03-19T06:47:47.168Z,13.23
2023-03-19T06:49:19.411Z,16.77
2023-03-19T06:50:51.141Z,14.32
2023-03-19T06:52:22.826Z,14.52
2023-03-19T06:53:55.056Z,14.05
2023-03-19T06:55:26.740Z,12.55
2023-03-19T06:56:59.282Z,14.27
2023-03-19T06:58:30.971Z,12.68
2023-03-19T07:00:05.578Z,13.00
2023-03-19T07:01:37.539Z,14.18
2023-03-19T07:03:10.496Z,12.27
2023-03-19T07:04:42.205Z,13.95
2023-03-19T07:06:13.968Z,13.00
2023-03-19T07:07:45.691Z,12.38
2023-03-19T07:09:17.442Z,11.40
2023-03-19T07:10:49.180Z,12.88
2023-03-19T07:12:20.918Z,13.35
2023-03-19T07:13:52.772Z,12.70
2023-03-19T07:15:24.468Z,13.80
2023-03-19T07:16:56.203Z,12.25
2023-03-19T07:18:27.950Z,13.30
2023-03-19T07:19:59.638Z,12.40
2023-03-19T07:21:31.353Z,14.60
2023-03-19T07:23:03.440Z,11.98
2023-03-19T07:24:35.131Z,12.70
2023-03-19T07:26:06.854Z,11.60
2023-03-19T07:27:38.547Z,13.95
2023-03-19T07:29:11.246Z,10.50
2023-03-19T07:30:42.945Z,12.57
2023-03-19T07:32:14.697Z,13.13
2023-03-19T07:33:46.412Z,12.18
2023-03-19T07:35:18.389Z,13.23
2023-03-19T07:36:51.285Z,13.50
2023-03-19T07:38:22.941Z,11.57
2023-03-19T07:39:54.624Z,13.85
2023-03-19T07:41:26.508Z,15.13
2023-03-19T07:42:58.211Z,14.10
2023-03-19T07:44:29.948Z,13.02
2023-03-19T07:46:01.986Z,12.32
2023-03-19T07:47:33.784Z,13.23
2023-03-19T07:49:05.987Z,14.90
2023-03-19T07:50:37.727Z,13.00
2023-03-19T07:52:10.089Z,12.05
2023-03-19T07:53:41.815Z,12.00
2023-03-19T07:55:14.143Z,12.63
2023-03-19T07:56:46.136Z,12.38
2023-03-19T07:58:18.271Z,12.75
2023-03-19T07:59:49.980Z,12.63
2023-03-19T08:01:21.775Z,11.30
2023-03-19T08:02:53.737Z,12.63
2023-03-19T08:04:25.453Z,13.02
2023-03-19T08:05:57.210Z,10.07
2023-03-19T08:07:28.896Z,12.63
2023-03-19T08:09:01.403Z,11.88
2023-03-19T08:10:37.978Z,8.93
2023-03-19T08:12:10.363Z,12.10
2023-03-19T08:13:42.799Z,12.88
2023-03-19T08:15:14.635Z,13.48
2023-03-19T08:16:46.405Z,12.70
2023-03-19T08:18:18.251Z,13.15
2023-03-19T08:19:51.193Z,10.95
2023-03-19T08:21:23.160Z,11.13
2023-03-19T08:22:55.049Z,11.80
2023-03-19T08:24:26.759Z,12.57
2023-03-19T08:25:58.499Z,12.25
2023-03-19T08:27:34.757Z,11.80
2023-03-19T08:29:07.109Z,11.68
2023-03-19T08:30:39.448Z,11.90
2023-03-19T08:32:11.566Z,11.85
2023-03-19T08:33:43.320Z,11.73
2023-03-19T08:35:15.106Z,12.10
2023-03-19T08:36:46.851Z,14.40
2023-03-19T08:38:19.252Z,10.73
2023-03-19T08:39:52.319Z,12.00
2023-03-19T08:41:24.478Z,11.07
2023-03-19T08:42:56.459Z,10.90
2023-03-19T08:44:28.244Z,10.90
2023-03-19T08:46:04.003Z,12.77
2023-03-19T08:47:35.784Z,12.25
2023-03-19T08:49:07.443Z,13.02
2023-03-19T08:50:39.104Z,11.30
2023-03-19T08:52:10.793Z,10.82
2023-03-19T08:53:42.459Z,11.55
2023-03-19T08:55:14.200Z,10.82
2023-03-19T08:56:46.785Z,11.43
2023-03-19T08:58:18.475Z,11.85
2023-03-19T08:59:50.397Z,11.60
2023-03-19T09:01:22.142Z,12.60
2023-03-19T09:02:53.804Z,12.27
2023-03-19T09:04:25.588Z,11.82
2023-03-19T09:06:02.091Z,12.43
2023-03-19T09:07:33.800Z,11.95
2023-03-19T09:09:06.503Z,11.45
2023-03-19T09:10:39.510Z,13.57
2023-03-19T09:12:13.647Z,12.57
2023-03-19T09:13:47.939Z,11.95
2023-03-19T09:15:19.906Z,12.95
2023-03-19T09:16:51.685Z,11.68
2023-03-19T09:18:26.616Z,12.43
2023-03-19T09:19:58.828Z,10.52
2023-03-19T09:21:30.668Z,11.52
2023-03-19T09:23:02.368Z,10.05
2023-03-19T09:24:34.196Z,10.18
2023-03-19T09:26:05.945Z,10.07
2023-03-19T09:27:37.745Z,11.48
2023-03-19T09:29:09.886Z,12.07
2023-03-19T09:30:41.655Z,10.75
2023-03-19T09:32:13.360Z,12.35
2023-03-19T09:33:45.395Z,12.00
2023-03-19T09:35:17.082Z,10.25
2023-03-19T09:36:48.804Z,12.50
2023-03-19T09:38:21.883Z,11.02
2023-03-19T09:39:53.619Z,14.27
2023-03-19T09:41:31.544Z,12.02
2023-03-19T09:43:41.963Z,11.57
2023-03-19T09:45:19.273Z,11.05
2023-03-19T09:47:26.224Z,11.88
2023-03-19T09:49:08.146Z,12.07
2023-03-19T09:50:39.863Z,10.95
2023-03-19T09:52:45.776Z,11.73
2023-03-19T09:54:39.817Z,11.90
2023-03-19T09:56:16.555Z,10.38
2023-03-19T09:57:49.001Z,9.70
2023-03-19T09:59:23.642Z,10.27
2023-03-19T10:00:55.609Z,10.57
2023-03-19T10:02:41.967Z,10.95
2023-03-19T10:04:39.961Z,10.27
2023-03-19T10:06:33.803Z,11.35
2023-03-19T10:08:28.463Z,11.68
2023-03-19T10:10:28.501Z,11.25
2023-03-19T10:12:20.396Z,10.98
2023-03-19T10:14:23.242Z,12.27
2023-03-19T10:15:56.497Z,11.50
2023-03-19T10:17:38.211Z,11.27
2023-03-19T10:19:13.414Z,11.40
2023-03-19T10:21:03.731Z,12.15
2023-03-19T10:22:47.366Z,10.68
2023-03-19T10:24:31.315Z,9.90
2023-03-19T10:26:06.115Z,11.32
2023-03-19T10:27:38.194Z,11.25
2023-03-19T10:29:15.990Z,10.02
2023-03-19T10:31:00.903Z,12.55
2023-03-19T10:32:46.205Z,10.93
2023-03-19T10:34:37.947Z,9.88
2023-03-19T10:36:13.389Z,9.93
2023-03-19T10:37:48.537Z,11.20
2023-03-19T10:39:20.534Z,11.77
2023-03-19T10:41:05.757Z,9.85
2023-03-19T10:43:16.762Z,11.05
2023-03-19T10:44:53.817Z,8.83
2023-03-19T10:46:25.929Z,9.50
2023-03-19T10:47:59.957Z,10.75
2023-03-19T10:49:36.155Z,12.82
2023-03-19T10:51:07.969Z,11.45
2023-03-19T10:52:39.759Z,10.40
2023-03-19T10:54:23.422Z,10.00
2023-03-19T10:56:07.248Z,9.75
2023-03-19T10:57:42.413Z,10.80
2023-03-19T10:59:36.350Z,10.48
2023-03-19T11:01:12.182Z,9.88
2023-03-19T11:02:53.881Z,10.18
2023-03-19T11:04:27.900Z,9.85
2023-03-19T11:06:31.347Z,10.32
2023-03-19T11:08:34.634Z,9.60
2023-03-19T11:10:16.308Z,9.38
2023-03-19T11:11:51.185Z,9.13
2023-03-19T11:13:27.071Z,8.23
2023-03-19T11:14:59.157Z,9.02
2023-03-19T11:16:31.337Z,10.07
2023-03-19T11:18:21.023Z,9.00
2023-03-19T11:19:58.369Z,8.35
2023-03-19T11:21:33.013Z,7.90
2023-03-19T11:23:15.789Z,9.95
2023-03-19T11:24:53.615Z,9.63
2023-03-19T11:26:28.668Z,9.85
2023-03-19T11:28:08.099Z,10.77
2023-03-19T11:29:44.862Z,8.98
2023-03-19T11:31:44.951Z,8.73
2023-03-19T11:33:32.742Z,9.20
2023-03-19T11:35:17.530Z,9.00
2023-03-19T11:37:03.660Z,10.57
2023-03-19T11:38:51.628Z,8.93
2023-03-19T11:40:37.928Z,9.52
2023-03-19T11:42:36.963Z,9.05
2023-03-19T11:44:24.115Z,10.30
2023-03-19T11:46:24.232Z,9.30
2023-03-19T11:48:13.847Z,9.15
2023-03-19T11:50:00.436Z,9.50
2023-03-19T11:51:48.198Z,9.20
2023-03-19T11:53:36.556Z,8.13
2023-03-19T11:55:37.795Z,9.15
2023-03-19T11:57:57.764Z,11.05
2023-03-19T11:59:55.076Z,9.23
2023-03-19T12:01:49.240Z,8.85
2023-03-19T12:03:49.476Z,8.95
2023-03-19T12:05:42.646Z,10.23
2023-03-19T12:07:39.595Z,9.80
2023-03-19T12:09:24.051Z,11.52
2023-03-19T12:11:07.396Z,9.23
2023-03-19T12:12:48.585Z,8.10
2023-03-19T12:14:28.039Z,7.82
2023-03-19T12:16:08.662Z,11.02
2023-03-19T12:17:41.715Z,9.75
2023-03-19T12:19:42.830Z,8.27
2023-03-19T12:21:23.976Z,9.88
2023-03-19T12:24:45.528Z,8.05
2023-03-19T12:26:48.697Z,7.85
2023-03-19T12:28:28.637Z,8.45
2023-03-19T12:30:22.441Z,8.45
2023-03-19T12:32:42.405Z,8.63
2023-03-19T12:34:40.161Z,11.05
2023-03-19T12:36:28.027Z,9.73
2023-03-19T12:38:17.509Z,8.50
2023-03-19T12:40:18.623Z,9.15
2023-03-19T12:41:52.564Z,11.00
2023-03-19T12:43:36.764Z,9.73
2023-03-19T12:45:31.342Z,9.60
2023-03-19T12:47:18.428Z,8.30
2023-03-19T12:49:02.993Z,9.10
2023-03-19T12:50:39.769Z,8.57
2023-03-19T12:52:39.316Z,10.00
2023-03-19T12:54:24.328Z,9.70
2023-03-19T12:56:01.282Z,9.30
2023-03-19T12:57:59.986Z,10.95
2023-03-19T12:59:42.681Z,11.25
2023-03-19T13:01:25.138Z,10.25
2023-03-19T13:03:18.578Z,9.40
2023-03-19T13:04:57.558Z,8.88
2023-03-19T13:06:47.966Z,10.70
2023-03-19T13:09:24.126Z,8.02
2023-03-19T13:10:59.694Z,8.98
2023-03-19T13:12:37.688Z,8.88
2023-03-19T13:14:50.233Z,9.75
2023-03-19T13:16:37.378Z,8.15
2023-03-19T13:18:22.030Z,8.88
2023-03-19T13:19:56.378Z,8.40
2023-03-19T13:21:32.488Z,11.00
2023-03-19T13:23:06.729Z,10.23
2023-03-19T13:24:40.892Z,10.05
2023-03-19T13:26:14.445Z,9.32
2023-03-19T13:27:54.351Z,10.90
2023-03-19T13:29:31.428Z,11.43
2023-03-19T13:31:17.030Z,9.85
2023-03-19T13:33:03.635Z,9.02
2023-03-19T13:34:37.850Z,9.93
2023-03-19T13:36:15.166Z,10.32
2023-03-19T13:37:51.871Z,11.25
2023-03-19T13:39:31.309Z,9.15
2023-03-19T13:41:03.025Z,10.50
2023-03-19T13:42:42.679Z,9.43
2023-03-19T13:44:32.356Z,9.80
2023-03-19T13:46:16.018Z,9.77
2023-03-19T13:47:51.388Z,8.65
2023-03-19T13:49:28.155Z,9.40
2023-03-19T13:51:02.970Z,8.18
2023-03-19T13:52:49.937Z,8.20
2023-03-19T13:54:35.877Z,7.32
2023-03-19T13:56:28.722Z,8.02
2023-03-19T13:58:17.667Z,7.00
2023-03-19T13:59:50.840Z,6.03
2023-03-19T14:01:25.755Z,6.70
2023-03-19T14:02:58.957Z,7.38
2023-03-19T14:04:32.855Z,8.38
2023-03-19T14:06:05.157Z,7.60
2023-03-19T14:07:40.494Z,7.20
2023-03-19T14:09:43.195Z,5.78
2023-03-19T14:11:24.634Z,7.38
2023-03-19T14:13:07.475Z,6.22
2023-03-19T14:15:05.498Z,6.13
2023-03-19T14:16:42.337Z,7.00
2023-03-19T14:18:22.334Z,7.38
2023-03-19T14:19:54.671Z,6.10
2023-03-19T14:22:06.907Z,6.85
2023-03-19T14:23:44.163Z,5.30
2023-03-19T14:25:19.482Z,5.03
2023-03-19T14:26:51.462Z,5.25
2023-03-19T14:28:30.605Z,4.47
2023-03-19T14:30:16.737Z,4.28
2023-03-19T14:31:54.410Z,4.47
2023-03-19T14:33:42.068Z,3.45
2023-03-19T14:35:17.211Z,3.17
2023-03-19T14:37:03.524Z,4.95
2023-03-19T14:38:40.376Z,3.20
2023-03-19T14:40:16.924Z,3.45
2023-03-19T14:41:54.734Z,3.67
2023-03-19T14:43:51.030Z,2.70
2023-03-19T14:45:43.103Z,4.95
2023-03-19T14:47:26.248Z,2.40
2023-03-19T14:49:13.171Z,2.60
2023-03-19T14:50:56.940Z,3.95
2023-03-19T14:52:32.297Z,2.00
2023-03-19T14:54:52.638Z,2.63
2023-03-19T14:56:33.377Z,2.33
2023-03-19T14:58:05.652Z,3.15
2023-03-19T14:59:39.722Z,2.83
2023-03-19T15:01:12.556Z,1.88
2023-03-19T15:02:50.503Z,3.92
2023-03-19T15:04:25.560Z,2.47
2023-03-19T15:06:00.189Z,1.70
2023-03-19T15:07:38.516Z,1.50
2023-03-19T15:09:18.581Z,2.33
2023-03-19T15:11:14.522Z,2.10
2023-03-19T15:13:23.577Z,2.00
2023-03-19T15:15:13.366Z,2.33
2023-03-19T15:17:09.830Z,1.83
2023-03-19T15:18:41.963Z,2.10
2023-03-19T15:20:21.916Z,2.50
2023-03-19T15:22:04.614Z,1.73
2023-03-19T15:23:39.565Z,2.08
2023-03-19T15:25:14.133Z,2.10
2023-03-19T15:26:46.429Z,3.38
2023-03-19T15:28:19.900Z,3.58
2023-03-19T15:29:53.619Z,3.05
2023-03-19T15:31:55.031Z,3.33
2023-03-19T15:33:42.087Z,2.35
2023-03-19T15:35:15.986Z,3.50
2023-03-19T15:36:53.518Z,2.40
2023-03-19T15:38:29.090Z,3.35
2023-03-19T15:40:02.704Z,1.83
2023-03-19T15:41:41.780Z,2.22
2023-03-19T15:43:14.285Z,1.52
2023-03-19T15:45:17.565Z,2.17
2023-03-19T15:46:51.170Z,3.17
2023-03-19T15:48:28.637Z,1.92
2023-03-19T15:50:16.428Z,1.75
2023-03-19T15:51:53.472Z,3.00
2023-03-19T15:53:31.515Z,2.00
2023-03-19T15:55:04.411Z,1.40
2023-03-19T15:56:36.292Z,2.33
2023-03-19T15:58:12.379Z,2.92
2023-03-19T15:59:46.020Z,2.22
2023-03-19T16:01:19.272Z,1.35
2023-03-19T16:02:52.828Z,2.60
2023-03-19T16:04:29.896Z,1.98
2023-03-19T16:06:27.582Z,1.80
2023-03-19T16:08:04.059Z,3.17
2023-03-19T16:09:35.724Z,2.65
2023-03-19T16:11:29.833Z,1.85
2023-03-19T16:13:05.160Z,1.60
2023-03-19T16:14:42.980Z,2.35
2023-03-19T16:16:20.028Z,1.70
2023-03-19T16:17:51.892Z,2.25
2023-03-19T16:19:29.588Z,2.42
2023-03-19T16:21:13.569Z,2.10
2023-03-19T16:22:55.622Z,1.73
2023-03-19T16:24:36.112Z,1.08
2023-03-19T16:26:24.155Z,2.45
2023-03-19T16:27:56.886Z,2.03
2023-03-19T16:29:36.527Z,2.03
2023-03-19T16:31:21.706Z,1.30
2023-03-19T16:33:02.230Z,1.63
2023-03-19T16:34:34.068Z,1.65
2023-03-19T16:36:12.504Z,1.90
2023-03-19T16:37:45.080Z,1.60
2023-03-19T16:39:32.349Z,0.98
2023-03-19T16:41:16.766Z,1.73
2023-03-19T16:42:54.193Z,2.97
2023-03-19T16:44:29.736Z,1.95
2023-03-19T16:46:12.372Z,1.75
2023-03-19T16:47:48.673Z,2.25
2023-03-19T16:49:21.069Z,1.50
2023-03-19T16:50:52.788Z,1.55
2023-03-19T16:52:25.052Z,2.67
2023-03-19T16:53:56.735Z,1.85
2023-03-19T16:55:34.728Z,1.52
2023-03-19T16:57:11.496Z,2.13
2023-03-19T16:58:44.774Z,1.63
2023-03-19T17:00:17.312Z,1.45
2023-03-19T17:01:49.196Z,2.10
2023-03-19T17:03:21.052Z,1.05
2023-03-19T17:04:52.991Z,1.10
2023-03-19T17:06:24.907Z,2.42
2023-03-19T17:07:57.010Z,1.60
2023-03-19T17:09:28.812Z,1.20
2023-03-19T17:11:01.401Z,0.90
2023-03-19T17:12:33.276Z,2.25
2023-03-19T17:14:07.085Z,2.53
2023-03-19T17:15:42.282Z,1.30
2023-03-19T17:17:19.535Z,2.53
2023-03-19T17:18:51.351Z,5.13
2023-03-19T17:20:36.185Z,15.05
2023-03-19T17:22:11.131Z,21.35
2023-03-19T17:23:43.661Z,25.10
2023-03-19T17:25:18.463Z,21.65
2023-03-19T17:26:50.370Z,12.52
2023-03-19T17:28:23.657Z,14.68
2023-03-19T17:29:55.416Z,13.65
2023-03-19T17:31:30.091Z,12.95
2023-03-19T17:33:02.673Z,10.73
2023-03-19T17:34:36.921Z,5.38
2023-03-19T17:36:09.562Z,3.55
2023-03-19T17:37:42.022Z,5.80
2023-03-19T17:39:13.846Z,5.22
2023-03-19T17:40:47.512Z,4.03
2023-03-19T17:42:23.192Z,3.20
2023-03-19T17:43:55.666Z,3.42
2023-03-19T17:45:29.914Z,2.78
2023-03-19T17:47:03.030Z,4.03
2023-03-19T17:48:35.085Z,5.00
2023-03-19T17:50:13.890Z,4.07
2023-03-19T17:51:46.960Z,4.10
2023-03-19T17:53:18.769Z,9.68
2023-03-19T17:54:50.683Z,9.77
2023-03-19T17:56:28.012Z,12.30
2023-03-19T17:57:59.799Z,14.63
2023-03-19T17:59:31.559Z,21.80
2023-03-19T18:01:03.480Z,23.67
2023-03-19T18:02:36.850Z,22.63
2023-03-19T18:04:17.939Z,22.60
2023-03-19T18:05:51.110Z,29.33
2023-03-19T18:07:22.928Z,28.50
2023-03-19T18:08:55.423Z,28.77
2023-03-19T18:10:30.171Z,21.80
2023-03-19T18:12:02.101Z,20.65
2023-03-19T18:13:34.945Z,14.15
2023-03-19T18:15:07.520Z,9.25
2023-03-19T18:16:39.848Z,6.00
2023-03-19T18:18:18.888Z,4.47
2023-03-19T18:19:52.346Z,9.80
2023-03-19T18:21:24.695Z,10.65
2023-03-19T18:22:56.480Z,12.63
2023-03-19T18:24:28.346Z,13.07
2023-03-19T18:26:00.155Z,14.00
2023-03-19T18:27:32.141Z,10.50
2023-03-19T18:29:04.907Z,12.40
2023-03-19T18:30:40.117Z,17.65
2023-03-19T18:32:15.611Z,17.08
2023-03-19T18:33:54.177Z,16.67
2023-03-19T18:35:31.744Z,13.52
2023-03-19T18:37:03.832Z,12.35
2023-03-19T18:38:36.005Z,8.68
2023-03-19T18:40:13.416Z,10.07
2023-03-19T18:41:45.625Z,6.95
2023-03-19T18:43:18.158Z,4.13
2023-03-19T18:44:49.974Z,3.10
2023-03-19T18:46:28.879Z,2.90
2023-03-19T18:48:01.074Z,2.92
2023-03-19T18:49:32.925Z,2.08
2023-03-19T18:51:05.395Z,2.92
2023-03-19T18:52:37.234Z,3.88
2023-03-19T18:54:10.910Z,1.30
2023-03-19T18:55:43.194Z,2.45
2023-03-19T18:57:16.555Z,1.55
2023-03-19T18:58:48.614Z,1.70
2023-03-19T19:00:24.896Z,2.35
2023-03-19T19:02:34.053Z,1.58
2023-03-19T19:04:05.977Z,1.92
2023-03-19T19:05:37.780Z,1.98
2023-03-19T19:07:13.707Z,1.48
2023-03-19T19:08:45.706Z,1.90
2023-03-19T19:10:18.704Z,1.63
2023-03-19T19:11:50.645Z,1.92
2023-03-19T19:13:25.976Z,1.95
2023-03-19T19:14:58.931Z,2.20
2023-03-19T19:16:36.433Z,2.53
2023-03-19T19:18:15.826Z,1.35
2023-03-19T19:19:48.083Z,1.45
2023-03-19T19:21:19.787Z,1.73
2023-03-19T19:22:53.162Z,1.58
2023-03-19T19:24:25.033Z,3.33
2023-03-19T19:25:56.915Z,3.10
2023-03-19T19:27:29.037Z,1.70
2023-03-19T19:29:01.220Z,1.92
2023-03-19T19:30:33.146Z,2.60
2023-03-19T19:32:10.724Z,2.92
2023-03-19T19:33:43.006Z,2.03
2023-03-19T19:35:24.393Z,1.98
2023-03-19T19:38:31.084Z,2.60
2023-03-19T19:40:03.360Z,1.33
2023-03-19T19:41:35.879Z,2.30
2023-03-19T19:43:17.330Z,1.17
2023-03-19T19:44:53.412Z,1.60
2023-03-19T19:46:25.292Z,1.80
2023-03-19T19:47:57.900Z,2.42
2023-03-19T19:49:29.715Z,2.13
2023-03-19T19:51:01.512Z,1.38
2023-03-19T19:52:33.779Z,2.22
2023-03-19T19:54:05.687Z,1.73
2023-03-19T19:55:38.614Z,1.40
2023-03-19T19:57:21.328Z,1.67
2023-03-19T19:58:54.928Z,3.63
2023-03-19T20:00:29.944Z,2.85
2023-03-19T20:02:02.148Z,2.20
2023-03-19T20:03:34.294Z,1.80
2023-03-19T20:05:07.404Z,1.85
2023-03-19T20:06:39.481Z,1.90
2023-03-19T20:08:12.435Z,1.95
2023-03-19T20:09:44.519Z,2.63
2023-03-19T20:11:18.536Z,1.52
2023-03-19T20:12:53.741Z,2.03
2023-03-19T20:14:25.596Z,2.53
2023-03-19T20:15:59.268Z,1.83
2023-03-19T20:17:31.188Z,1.45
2023-03-19T20:19:02.972Z,2.22
2023-03-19T20:20:35.606Z,1.45
2023-03-19T20:22:07.340Z,1.25
2023-03-19T20:23:42.925Z,2.47
2023-03-19T20:25:14.917Z,1.90
2023-03-19T20:26:46.841Z,1.73
2023-03-19T20:28:23.042Z,1.70
2023-03-19T20:29:55.119Z,1.50
2023-03-19T20:31:29.942Z,2.35
2023-03-19T20:33:02.113Z,3.13
2023-03-19T20:34:39.450Z,2.15
2023-03-19T20:36:15.783Z,1.83
2023-03-19T20:37:47.878Z,1.77
2023-03-19T20:39:19.773Z,2.30
2023-03-19T20:40:56.308Z,1.98
2023-03-19T20:42:31.585Z,2.03
2023-03-19T20:44:05.742Z,1.60
2023-03-19T20:45:38.837Z,2.00
2023-03-19T20:47:21.339Z,2.97
2023-03-19T20:48:53.115Z,2.15
2023-03-19T20:50:28.240Z,4.07
2023-03-19T20:52:00.112Z,2.75
2023-03-19T20:53:31.898Z,2.75
2023-03-19T20:55:04.155Z,2.22
2023-03-19T20:56:39.290Z,2.17
2023-03-19T20:58:30.985Z,2.10
2023-03-19T21:00:22.245Z,2.17
2023-03-19T21:01:56.476Z,2.17
2023-03-19T21:03:30.953Z,3.10
2023-03-19T21:05:07.625Z,1.67
2023-03-19T21:06:52.585Z,1.55
2023-03-19T21:08:34.712Z,2.47
2023-03-19T21:10:35.144Z,2.33
2023-03-19T21:12:26.381Z,2.42
2023-03-19T21:13:59.631Z,2.17
2023-03-19T21:15:31.611Z,1.80